Time;durP1;ratioP1;P1;durP2;ratioP2;P2;SDS_P1;SDS_P2;PMS_P1;PMS_P2;Temp;Humidity;BMP_temperature;BMP_pressure;BME280_temperature;BME280_humidity;BME280_pressure;Samples;Min_cycle;Max_cycle;Signal;HPM_P1;HPM_P2
2022/04/01 00:01:37;;;;;;;2.08;1.40;;;;;;;-1.49;100.00;97436.44;5131128;28;20043;-58
2022/04/01 00:04:04;;;;;;;2.88;1.70;;;;;;;-1.39;100.00;97432.56;5131354;28;20134;-59
2022/04/01 00:06:31;;;;;;;1.30;1.20;;;;;;;-1.49;100.00;97444.50;5131072;28;20049;-59
2022/04/01 00:08:57;;;;;;;2.35;1.38;;;;;;;-1.52;100.00;97429.03;5131228;28;20048;-58
2022/04/01 00:11:23;;;;;;;2.13;1.67;;;;;;;-1.58;100.00;97433.78;5131616;28;20057;-58
2022/04/01 00:13:50;;;;;;;2.60;1.40;;;;;;;-1.53;100.00;97444.38;5131514;28;20188;-58
2022/04/01 00:16:16;;;;;;;1.52;1.40;;;;;;;-1.53;100.00;97438.22;5131653;28;20147;-59
2022/04/01 00:18:43;;;;;;;2.88;1.40;;;;;;;-1.58;100.00;97436.47;5131128;28;20533;-58
2022/04/01 00:21:09;;;;;;;1.13;1.02;;;;;;;-1.57;100.00;97440.72;5131317;28;20047;-59
2022/04/01 00:23:36;;;;;;;4.03;1.33;;;;;;;-1.56;100.00;97439.66;5131036;28;20501;-58
2022/04/01 00:26:02;;;;;;;2.05;1.38;;;;;;;-1.58;100.00;97439.16;5131141;28;20047;-59
2022/04/01 00:28:28;;;;;;;3.60;1.50;;;;;;;-1.52;100.00;97434.41;5130395;28;20502;-59
2022/04/01 00:30:54;;;;;;;2.17;1.67;;;;;;;-1.56;100.00;97436.97;5130604;28;20047;-58
2022/04/01 00:33:21;;;;;;;3.25;1.50;;;;;;;-1.48;100.00;97451.44;5131231;28;20047;-58
2022/04/01 00:35:47;;;;;;;3.10;1.45;;;;;;;-1.64;100.00;97440.47;5131017;28;20047;-58
2022/04/01 00:38:13;;;;;;;3.00;1.60;;;;;;;-1.61;100.00;97450.56;5130765;28;20072;-58
2022/04/01 00:40:41;;;;;;;5.35;1.40;;;;;;;-1.60;100.00;97441.41;5130756;28;20418;-58
2022/04/01 00:43:07;;;;;;;1.38;1.20;;;;;;;-1.57;100.00;97451.47;5130867;28;20494;-58
2022/04/01 00:45:34;;;;;;;2.78;1.02;;;;;;;-1.64;100.00;97464.66;5130278;27;20054;-59
2022/04/01 00:48:02;;;;;;;1.23;1.13;;;;;;;-1.65;100.00;97446.97;5130850;28;20055;-58
2022/04/01 00:50:28;;;;;;;1.45;1.10;;;;;;;-1.73;100.00;97453.19;5130638;28;20054;-58
2022/04/01 00:52:55;;;;;;;1.88;1.38;;;;;;;-1.65;100.00;97444.28;5130581;28;20073;-58
2022/04/01 00:55:21;;;;;;;1.85;1.33;;;;;;;-1.70;100.00;97449.84;5130378;28;20146;-59
2022/04/01 00:57:49;;;;;;;2.80;1.45;;;;;;;-1.68;100.00;97456.47;5130651;28;20054;-58
2022/04/01 01:00:15;;;;;;;2.22;1.35;;;;;;;-1.72;100.00;97466.28;5130743;28;20050;-58
2022/04/01 01:02:41;;;;;;;2.75;2.00;;;;;;;-1.77;100.00;97465.69;5130419;28;20047;-58
2022/04/01 01:05:08;;;;;;;1.77;1.40;;;;;;;-1.66;100.00;97466.91;5130623;28;20047;-58
2022/04/01 01:07:36;;;;;;;2.85;1.48;;;;;;;-1.66;100.00;97469.59;5130521;28;20047;-59
2022/04/01 01:10:04;;;;;;;3.70;1.70;;;;;;;-1.71;100.00;97472.44;5130577;28;20050;-58
2022/04/01 01:12:31;;;;;;;2.05;1.70;;;;;;;-1.78;100.00;97477.56;5130275;28;20526;-58
2022/04/01 01:15:07;;;;;;;1.50;1.20;;;;;;;-1.78;100.00;97481.03;5130494;28;20410;-58
2022/04/01 01:17:34;;;;;;;2.17;1.30;;;;;;;-1.85;100.00;97502.25;5130406;28;20047;-58
2022/04/01 01:20:00;;;;;;;1.98;1.30;;;;;;;-1.83;100.00;97493.84;5130339;28;20525;-58
2022/04/01 01:22:26;;;;;;;1.30;1.20;;;;;;;-1.94;100.00;97526.44;5130381;28;20076;-58
2022/04/01 01:24:53;;;;;;;1.50;1.40;;;;;;;-1.82;100.00;97533.81;5130459;28;20606;-58
2022/04/01 01:27:20;;;;;;;2.28;1.63;;;;;;;-1.91;100.00;97539.22;5130141;28;20043;-58
2022/04/01 01:29:46;;;;;;;1.63;1.38;;;;;;;-1.91;100.00;97531.16;5130432;28;20361;-58
2022/04/01 01:32:19;;;;;;;2.85;1.60;;;;;;;-1.90;100.00;97575.75;5130838;28;20047;-58
2022/04/01 01:34:45;;;;;;;1.60;1.23;;;;;;;-1.98;100.00;97583.81;5129941;28;20058;-58
2022/04/01 01:37:11;;;;;;;4.43;1.55;;;;;;;-1.94;100.00;97617.75;5130082;28;20067;-58
2022/04/01 01:39:38;;;;;;;1.58;1.45;;;;;;;-1.96;100.00;97625.38;5129833;28;20055;-58
2022/04/01 01:42:07;;;;;;;1.45;1.30;;;;;;;-1.91;100.00;97657.41;5129912;28;20505;-58
2022/04/01 01:44:34;;;;;;;2.50;1.73;;;;;;;-1.94;100.00;97657.25;5129949;28;20047;-58
2022/04/01 01:47:00;;;;;;;5.53;1.95;;;;;;;-1.86;100.00;97688.69;5129888;28;20051;-59
2022/04/01 01:49:26;;;;;;;5.35;2.00;;;;;;;-1.83;100.00;97703.38;5129866;28;20055;-58
2022/04/01 01:54:43;;;;;;;2.88;1.95;;;;;;;-1.85;100.00;97744.00;5130408;28;20046;-58
2022/04/01 01:57:10;;;;;;;3.42;2.40;;;;;;;-1.85;100.00;97772.75;5129993;27;20104;-58
2022/04/01 01:59:38;;;;;;;1.90;1.70;;;;;;;-1.83;100.00;97792.00;5133647;28;20423;-59
2022/04/01 02:02:05;;;;;;;3.28;1.77;;;;;;;-1.87;100.00;97826.00;5133336;28;20497;-58
2022/04/01 02:04:32;;;;;;;3.50;2.03;;;;;;;-2.00;100.00;97838.47;5133287;28;20065;-58
2022/04/01 02:06:58;;;;;;;6.03;2.40;;;;;;;-2.03;100.00;97882.06;5133127;28;20096;-58
2022/04/01 02:09:25;;;;;;;2.38;1.75;;;;;;;-2.02;100.00;97905.94;5133118;28;20059;-58
2022/04/01 02:11:51;;;;;;;2.67;1.90;;;;;;;-2.07;100.00;97932.13;5133310;28;20047;-58
2022/04/01 02:14:18;;;;;;;4.03;2.38;;;;;;;-2.13;100.00;97969.09;5133162;28;20051;-59
2022/04/01 02:16:45;;;;;;;5.93;2.83;;;;;;;-2.16;100.00;97993.88;5133125;28;20520;-58
2022/04/01 02:19:11;;;;;;;6.43;3.08;;;;;;;-2.08;100.00;98016.50;5133151;28;20142;-58
2022/04/01 02:21:38;;;;;;;3.65;2.42;;;;;;;-2.06;100.00;98035.78;5133225;28;20051;-58
2022/04/01 02:24:07;;;;;;;2.88;2.40;;;;;;;-2.08;100.00;98062.16;5132997;28;20472;-59
2022/04/01 02:26:34;;;;;;;3.60;2.33;;;;;;;-2.22;100.00;98049.59;5132949;28;20047;-58
2022/04/01 02:29:03;;;;;;;2.85;1.88;;;;;;;-2.35;100.00;98098.78;5132262;28;20047;-58
2022/04/01 02:31:30;;;;;;;4.00;2.53;;;;;;;-2.43;100.00;98140.59;5133140;28;20433;-58
2022/04/01 02:33:56;;;;;;;3.25;2.53;;;;;;;-2.41;100.00;98180.53;5132758;28;20042;-58
2022/04/01 02:36:23;;;;;;;5.88;3.20;;;;;;;-2.40;100.00;98217.81;5132931;28;20430;-58
2022/04/01 02:38:50;;;;;;;5.10;3.28;;;;;;;-2.41;100.00;98258.38;5132908;28;20054;-58
2022/04/01 02:41:17;;;;;;;8.30;3.97;;;;;;;-2.44;100.00;98272.38;5132582;28;20418;-59
2022/04/01 02:43:43;;;;;;;5.88;3.03;;;;;;;-2.47;100.00;98299.81;5132747;28;20051;-58
2022/04/01 02:46:10;;;;;;;6.70;2.72;;;;;;;-2.47;100.00;98330.13;5132627;28;20133;-58
2022/04/01 02:48:37;;;;;;;7.63;3.38;;;;;;;-2.50;100.00;98365.66;5132602;28;20055;-58
2022/04/01 02:51:03;;;;;;;5.20;2.92;;;;;;;-2.50;100.00;98372.88;5132628;28;20051;-58
2022/04/01 02:53:29;;;;;;;5.22;3.22;;;;;;;-2.59;100.00;98383.53;5132667;28;20047;-58
2022/04/01 02:55:56;;;;;;;6.80;3.47;;;;;;;-2.62;100.00;98402.91;5132398;28;20047;-58
2022/04/01 02:58:22;;;;;;;9.23;3.92;;;;;;;-2.65;100.00;98435.69;5132983;28;20180;-59
2022/04/01 03:00:48;;;;;;;6.03;3.60;;;;;;;-2.66;100.00;98439.50;5132569;28;20051;-58
2022/04/01 03:03:15;;;;;;;5.05;3.38;;;;;;;-2.61;100.00;98453.59;5132391;28;20050;-58
2022/04/01 03:05:43;;;;;;;5.57;3.58;;;;;;;-2.52;100.00;98469.03;5132626;28;20082;-59
2022/04/01 03:08:09;;;;;;;5.03;3.58;;;;;;;-2.48;100.00;98467.34;5132094;27;20059;-58
2022/04/01 03:10:37;;;;;;;9.18;4.18;;;;;;;-2.54;100.00;98442.47;5131098;28;20505;-58
2022/04/01 03:13:04;;;;;;;5.30;3.08;;;;;;;-2.61;100.00;98442.06;5132135;28;20551;-58
2022/04/01 03:15:30;;;;;;;5.20;3.42;;;;;;;-2.62;100.00;98461.94;5132120;28;20118;-58
2022/04/01 03:17:58;;;;;;;5.07;3.47;;;;;;;-2.67;100.00;98448.59;5132089;28;20137;-58
2022/04/01 03:20:29;;;;;;;4.53;3.35;;;;;;;-2.59;100.00;98466.72;5132413;28;20120;-58
2022/04/01 03:22:57;;;;;;;12.50;3.75;;;;;;;-2.62;100.00;98478.03;5131987;28;20099;-58
2022/04/01 03:25:24;;;;;;;6.60;3.65;;;;;;;-2.55;100.00;98477.66;5132223;28;20051;-58
2022/04/01 03:27:51;;;;;;;9.20;4.32;;;;;;;-2.49;100.00;98479.97;5131654;28;20172;-58
2022/04/01 03:30:18;;;;;;;6.13;3.53;;;;;;;-2.55;100.00;98480.34;5131803;28;20058;-58
2022/04/01 03:32:45;;;;;;;6.72;3.70;;;;;;;-2.42;100.00;98490.31;5132034;28;20089;-58
2022/04/01 03:35:15;;;;;;;6.45;3.30;;;;;;;-2.53;100.00;98460.19;5131692;28;20099;-58
2022/04/01 03:37:42;;;;;;;7.32;3.83;;;;;;;-2.52;100.00;98472.50;5131810;28;20055;-58
2022/04/01 03:40:10;;;;;;;5.55;4.00;;;;;;;-2.54;100.00;98468.50;5131481;28;20047;-58
2022/04/01 03:42:36;;;;;;;5.15;3.55;;;;;;;-2.44;100.00;98489.81;5131591;28;20048;-58
2022/04/01 03:45:06;;;;;;;8.55;4.32;;;;;;;-2.45;100.00;98475.59;5131730;28;20047;-58
2022/04/01 03:47:42;;;;;;;6.35;3.88;;;;;;;-2.27;100.00;98494.59;5131915;28;20046;-59
2022/04/01 03:50:10;;;;;;;6.05;4.15;;;;;;;-2.44;100.00;98465.66;5131641;28;20104;-58
2022/04/01 03:52:37;;;;;;;9.63;5.18;;;;;;;-2.24;100.00;98488.63;5131707;28;20054;-58
2022/04/01 03:55:06;;;;;;;11.13;4.32;;;;;;;-2.28;100.00;98460.78;5131496;28;20072;-58
2022/04/01 03:57:36;;;;;;;5.10;3.50;;;;;;;-2.21;100.00;98469.25;5131485;28;20111;-59
2022/04/01 04:00:04;;;;;;;6.53;4.13;;;;;;;-2.28;100.00;98458.09;5131824;28;20044;-58
2022/04/01 04:02:33;;;;;;;5.70;3.95;;;;;;;-2.26;100.00;98466.69;5131528;28;20100;-58
2022/04/01 04:05:00;;;;;;;9.05;4.57;;;;;;;-2.20;100.00;98458.22;5131851;28;20043;-58
2022/04/01 04:07:27;;;;;;;6.95;3.83;;;;;;;-2.25;100.00;98474.41;5131216;28;20520;-58
2022/04/01 04:09:54;;;;;;;6.72;4.40;;;;;;;-2.27;100.00;98473.13;5131419;28;20424;-58
2022/04/01 04:12:22;;;;;;;6.68;4.40;;;;;;;-2.27;100.00;98463.16;5131416;28;20043;-58
2022/04/01 04:14:52;;;;;;;6.72;3.90;;;;;;;-2.19;100.00;98492.03;5131684;28;20047;-58
2022/04/01 04:17:25;;;;;;;6.90;4.15;;;;;;;-2.10;100.00;98497.50;5131000;28;20051;-58
2022/04/01 04:19:59;;;;;;;7.57;4.70;;;;;;;-2.10;100.00;98494.00;5131426;27;20051;-58
2022/04/01 04:22:31;;;;;;;7.75;4.70;;;;;;;-2.15;100.00;98476.13;5131341;28;20043;-59
2022/04/01 04:24:58;;;;;;;7.63;3.30;;;;;;;-2.22;100.00;98473.81;5131267;28;20043;-58
2022/04/01 04:27:26;;;;;;;7.88;4.43;;;;;;;-2.19;100.00;98483.97;5130664;28;20047;-58
2022/04/01 04:30:08;;;;;;;8.05;4.13;;;;;;;-2.05;100.00;98488.56;5130895;28;20051;-58
2022/04/01 04:32:35;;;;;;;6.80;3.70;;;;;;;-2.16;100.00;98485.28;5131236;28;20161;-58
2022/04/01 04:35:05;;;;;;;5.85;3.75;;;;;;;-2.05;100.00;98492.03;5130716;28;20395;-58
2022/04/01 04:37:35;;;;;;;5.35;3.85;;;;;;;-2.10;100.00;98502.06;5130734;28;20055;-58
2022/04/01 04:40:02;;;;;;;10.90;4.65;;;;;;;-2.10;100.00;98499.38;5130707;28;20050;-58
2022/04/01 04:42:28;;;;;;;6.18;4.10;;;;;;;-2.00;100.00;98500.00;5130795;28;20054;-58
2022/04/01 04:44:56;;;;;;;6.03;4.40;;;;;;;-1.91;100.00;98502.78;5130892;28;20047;-58
2022/04/01 04:47:27;;;;;;;7.68;3.53;;;;;;;-1.87;100.00;98502.97;5130893;28;20050;-58
2022/04/01 04:49:56;;;;;;;8.30;3.47;;;;;;;-1.99;100.00;98477.41;5130885;28;20050;-58
2022/04/01 04:52:26;;;;;;;10.30;3.75;;;;;;;-1.97;100.00;98469.03;5130407;28;20105;-59
2022/04/01 04:54:55;;;;;;;5.50;3.67;;;;;;;-1.96;100.00;98479.50;5131108;28;20061;-58
2022/04/01 04:57:22;;;;;;;6.28;3.55;;;;;;;-1.94;100.00;98455.81;5130465;28;20549;-59
2022/04/01 04:59:50;;;;;;;3.97;3.03;;;;;;;-1.95;100.00;98478.41;5130421;28;20047;-58
2022/04/01 05:02:26;;;;;;;3.95;3.33;;;;;;;-1.85;100.00;98463.97;5130025;28;20104;-58
2022/04/01 05:05:03;;;;;;;9.20;3.85;;;;;;;-1.74;100.00;98454.59;5130472;28;20062;-59
2022/04/01 05:07:43;;;;;;;6.95;3.53;;;;;;;-1.76;100.00;98431.81;5127910;27;20055;-58
2022/04/01 05:10:16;;;;;;;10.95;3.80;;;;;;;-1.61;100.00;98436.84;5127893;28;20061;-58
2022/04/01 05:12:53;;;;;;;7.03;2.92;;;;;;;-1.44;100.00;98420.88;5112310;28;20047;-58
2022/04/01 05:15:26;;;;;;;5.35;3.53;;;;;;;-1.51;100.00;98393.63;5109700;28;20048;-59
2022/04/01 05:18:00;;;;;;;4.53;2.75;;;;;;;-1.34;100.00;98398.34;5109722;28;20054;-58
2022/04/01 05:20:28;;;;;;;4.03;3.03;;;;;;;-1.38;100.00;98350.88;5110484;28;20062;-58
2022/04/01 05:23:09;;;;;;;7.00;3.33;;;;;;;-1.43;100.00;98346.41;5112181;27;20055;-58
2022/04/01 05:25:41;;;;;;;6.80;3.15;;;;;;;-1.64;100.00;98338.00;5117883;28;20138;-58
2022/04/01 05:28:17;;;;;;;6.07;3.25;;;;;;;-1.67;100.00;98360.13;5109125;28;20060;-58
2022/04/01 05:30:45;;;;;;;9.32;3.95;;;;;;;-1.64;100.00;98378.31;5125212;28;20047;-58
2022/04/01 05:33:18;;;;;;;6.22;3.65;;;;;;;-1.37;100.00;98417.75;5115218;28;20047;-54
2022/04/01 05:35:51;;;;;;;7.18;3.70;;;;;;;-1.16;100.00;98401.97;5129172;28;20051;-53
2022/04/01 05:38:19;;;;;;;7.15;3.30;;;;;;;-0.95;100.00;98383.41;5149796;27;20051;-52
2022/04/01 05:40:46;;;;;;;3.45;2.30;;;;;;;-1.09;100.00;98342.34;5151324;27;20053;-52
2022/04/01 05:43:14;;;;;;;8.15;3.35;;;;;;;-1.22;100.00;98327.88;5133256;28;20440;-52
2022/04/01 05:45:42;;;;;;;6.85;3.10;;;;;;;-1.01;100.00;98333.53;5133634;28;20047;-51
2022/04/01 05:48:11;;;;;;;10.80;3.50;;;;;;;-1.00;100.00;98327.03;5133530;28;20055;-53
2022/04/01 05:50:39;;;;;;;4.68;3.25;;;;;;;-0.97;100.00;98321.84;5133481;28;20058;-52
2022/04/01 05:53:06;;;;;;;7.43;4.13;;;;;;;-0.96;100.00;98304.59;5137818;27;20046;-63
2022/04/01 05:55:35;;;;;;;8.38;4.45;;;;;;;-1.03;100.00;98323.06;5153941;27;20421;-62
2022/04/01 05:58:05;;;;;;;5.43;3.80;;;;;;;-1.06;100.00;98328.28;5154001;27;20061;-63
2022/04/01 06:00:38;;;;;;;7.88;4.80;;;;;;;-1.19;100.00;98338.03;5154140;27;20061;-63
2022/04/01 06:03:35;;;;;;;5.45;3.63;;;;;;;-1.15;100.00;98392.78;5153946;27;20051;-59
2022/04/01 06:06:07;;;;;;;11.50;4.05;;;;;;;-1.10;100.00;98408.00;5154193;27;20454;-60
2022/04/01 06:08:44;;;;;;;9.88;4.20;;;;;;;-0.99;100.00;98418.22;5154063;27;20054;-59
2022/04/01 06:11:14;;;;;;;10.02;3.80;;;;;;;-0.91;100.00;98418.56;5154442;27;20046;-60
2022/04/01 06:13:50;;;;;;;5.60;4.00;;;;;;;-0.98;100.00;98408.22;5153630;27;20107;-55
2022/04/01 06:16:23;;;;;;;6.28;3.50;;;;;;;-1.01;100.00;98417.72;5153901;27;20049;-55
2022/04/01 06:18:59;;;;;;;9.18;4.28;;;;;;;-0.79;100.00;98437.63;5153740;27;20047;-56
2022/04/01 06:21:27;;;;;;;7.95;4.63;;;;;;;-0.82;100.00;98414.81;5154008;27;20051;-55
2022/04/01 06:24:32;;;;;;;10.02;5.13;;;;;;;-0.69;100.00;98418.53;5153504;27;20050;-54
2022/04/01 06:27:01;;;;;;;7.78;4.93;;;;;;;-0.37;100.00;98401.25;5153415;27;20051;-51
2022/04/01 06:29:35;;;;;;;6.82;4.72;;;;;;;-0.39;100.00;98338.06;5149894;27;20057;-52
2022/04/01 06:32:05;;;;;;;8.48;4.88;;;;;;;-0.57;100.00;98339.88;5132465;28;20096;-51
2022/04/01 06:34:47;;;;;;;8.60;4.53;;;;;;;-0.57;100.00;98343.34;5132461;28;20055;-51
2022/04/01 06:37:23;;;;;;;6.72;4.80;;;;;;;-0.52;100.00;98339.75;5132582;27;20054;-54
2022/04/01 06:39:58;;;;;;;8.65;5.55;;;;;;;-0.47;100.00;98342.28;5132536;28;20066;-53
2022/04/01 06:42:27;;;;;;;7.38;4.25;;;;;;;-0.24;100.00;98359.16;5132376;28;20043;-51
2022/04/01 06:44:53;;;;;;;9.00;5.43;;;;;;;-0.32;100.00;98314.16;5131307;27;20054;-54
2022/04/01 06:47:20;;;;;;;12.88;5.10;;;;;;;-0.16;100.00;98325.28;5132043;28;20107;-54
2022/04/01 06:49:46;;;;;;;8.32;4.95;;;;;;;-0.30;100.00;98288.50;5132328;28;20199;-53
2022/04/01 06:52:12;;;;;;;10.07;6.20;;;;;;;-0.28;100.00;98296.25;5131370;28;20047;-53
2022/04/01 06:54:39;;;;;;;9.98;4.93;;;;;;;-0.08;100.00;98298.31;5132120;28;20047;-55
2022/04/01 06:57:06;;;;;;;8.75;5.18;;;;;;;0.13;100.00;98284.22;5131918;28;20107;-55
2022/04/01 06:59:34;;;;;;;10.35;5.20;;;;;;;0.34;100.00;98249.34;5131806;28;20047;-54
2022/04/01 07:02:00;;;;;;;6.78;4.22;;;;;;;0.18;100.00;98168.19;5126573;28;20047;-54
2022/04/01 07:04:26;;;;;;;6.15;4.50;;;;;;;-0.16;100.00;98142.09;5114719;28;20146;-53
2022/04/01 07:06:55;;;;;;;6.97;5.07;;;;;;;0.02;100.00;98216.38;5111375;28;20087;-54
2022/04/01 07:09:22;;;;;;;7.32;4.60;;;;;;;0.01;100.00;98205.94;5111348;28;20060;-54
2022/04/01 07:11:49;;;;;;;8.20;4.30;;;;;;;0.27;100.00;98204.00;5118439;28;20055;-52
2022/04/01 07:14:15;;;;;;;8.18;4.13;;;;;;;0.41;100.00;98187.63;5131847;28;20059;-54
2022/04/01 07:16:42;;;;;;;7.20;4.63;;;;;;;0.52;100.00;98134.91;5132267;28;20047;-55
2022/04/01 07:19:08;;;;;;;7.60;5.18;;;;;;;0.60;100.00;98090.94;5132104;28;20059;-51
2022/04/01 07:21:35;;;;;;;7.32;4.60;;;;;;;0.45;100.00;98037.56;5130026;28;20099;-53
2022/04/01 07:24:02;;;;;;;7.30;4.38;;;;;;;0.46;100.00;98042.63;5131668;28;20047;-52
2022/04/01 07:26:28;;;;;;;9.98;5.00;;;;;;;0.41;100.00;98005.06;5129357;27;20142;-54
2022/04/01 07:28:55;;;;;;;7.05;5.38;;;;;;;0.38;100.00;98008.41;5110833;28;20494;-53
2022/04/01 07:34:06;;;;;;;5.63;4.25;;;;;;;0.35;100.00;98024.44;5112350;28;20131;-52
2022/04/01 07:36:33;;;;;;;4.60;3.85;;;;;;;0.32;100.00;98050.16;5111298;28;20048;-50
2022/04/01 07:39:00;;;;;;;5.80;4.05;;;;;;;0.61;100.00;98051.28;5110941;28;20529;-51
2022/04/01 07:41:29;;;;;;;6.07;4.25;;;;;;;0.71;100.00;98029.31;5110939;28;20539;-54
2022/04/01 07:43:56;;;;;;;9.23;4.95;;;;;;;0.57;100.00;97981.03;5114704;27;20051;-50
2022/04/01 07:46:22;;;;;;;6.68;4.93;;;;;;;0.78;100.00;97993.72;5127715;28;20631;-54
2022/04/01 07:48:48;;;;;;;9.93;4.35;;;;;;;0.85;100.00;97953.53;5110680;28;20052;-53
2022/04/01 07:51:14;;;;;;;6.15;3.92;;;;;;;0.77;100.00;97908.50;5110670;28;20506;-54
2022/04/01 07:53:41;;;;;;;4.55;3.65;;;;;;;1.00;100.00;97912.44;5110797;28;20104;-52
2022/04/01 07:56:07;;;;;;;4.43;3.28;;;;;;;0.88;100.00;97858.44;5113732;27;20047;-53
2022/04/01 07:58:34;;;;;;;6.78;4.25;;;;;;;0.92;100.00;97865.50;5121286;27;20065;-54
2022/04/01 08:01:01;;;;;;;11.75;4.30;;;;;;;1.06;100.00;97850.94;5115843;28;20048;-52
2022/04/01 08:03:27;;;;;;;7.18;4.10;;;;;;;0.87;100.00;97816.38;5110454;28;20092;-51
2022/04/01 08:05:53;;;;;;;10.23;4.43;;;;;;;0.64;100.00;97826.75;5120862;28;20134;-50
2022/04/01 08:08:20;;;;;;;5.45;4.18;;;;;;;0.76;100.00;97886.13;5122560;28;20097;-54
2022/04/01 08:10:46;;;;;;;5.22;4.03;;;;;;;1.06;100.00;97883.31;5131039;28;20554;-55
2022/04/01 08:13:13;;;;;;;5.90;4.10;;;;;;;1.60;100.00;97829.97;5124077;27;20047;-54
2022/04/01 08:15:39;;;;;;;5.28;3.92;;;;;;;1.76;100.00;97724.66;5118706;27;20048;-54
2022/04/01 08:18:06;;;;;;;5.82;4.50;;;;;;;1.68;100.00;97627.56;5119093;28;20117;-52
2022/04/01 08:20:33;;;;;;;4.20;3.13;;;;;;;1.77;100.00;97591.16;5110126;28;20510;-52
2022/04/01 08:22:59;;;;;;;7.35;3.95;;;;;;;1.51;100.00;97566.53;5110328;28;20059;-54
2022/04/01 08:25:25;;;;;;;10.60;4.20;;;;;;;1.60;100.00;97581.44;5119234;28;20043;-53
2022/04/01 08:27:51;;;;;;;8.30;4.72;;;;;;;1.53;100.00;97559.63;5130205;27;20059;-52
2022/04/01 08:30:17;;;;;;;6.95;3.88;;;;;;;1.22;100.00;97575.72;5130768;28;20054;-55
2022/04/01 08:32:44;;;;;;;6.57;4.20;;;;;;;1.26;100.00;97625.19;5131065;28;20070;-55
2022/04/01 08:35:10;;;;;;;5.18;3.47;;;;;;;1.26;100.00;97625.19;5123578;28;20465;-52
2022/04/01 08:37:38;;;;;;;18.98;4.68;;;;;;;1.11;100.00;97638.28;5110674;28;20047;-55
2022/04/01 08:40:06;;;;;;;8.68;4.22;;;;;;;1.11;100.00;97669.88;5110052;28;20047;-51
2022/04/01 08:42:32;;;;;;;7.82;4.90;;;;;;;1.09;100.00;97686.41;5110150;28;20047;-51
2022/04/01 08:45:01;;;;;;;7.93;4.93;;;;;;;1.34;100.00;97724.97;5113956;28;20054;-55
2022/04/01 08:47:28;;;;;;;13.27;4.90;;;;;;;1.46;100.00;97672.84;5130706;27;20089;-55
2022/04/01 08:49:55;;;;;;;12.07;4.75;;;;;;;1.38;100.00;97650.25;5130772;28;20051;-55
2022/04/01 08:52:22;;;;;;;6.70;4.78;;;;;;;1.54;100.00;97650.34;5130820;28;20047;-52
2022/04/01 08:54:48;;;;;;;6.57;4.75;;;;;;;1.60;100.00;97640.06;5127394;28;20433;-53
2022/04/01 08:57:17;;;;;;;12.15;4.68;;;;;;;1.40;100.00;97599.41;5110467;28;20120;-51
2022/04/01 08:59:44;;;;;;;6.30;4.80;;;;;;;1.59;100.00;97630.41;5120904;28;20078;-54
2022/04/01 09:02:11;;;;;;;8.80;4.80;;;;;;;1.81;100.00;97615.56;5110254;28;20047;-55
2022/04/01 09:04:38;;;;;;;5.55;4.22;;;;;;;1.51;100.00;97550.31;5109971;28;20056;-52
2022/04/01 09:07:11;;;;;;;9.93;4.88;;;;;;;1.73;100.00;97613.78;5111776;28;20055;-54
2022/04/01 09:09:38;;;;;;;6.55;5.03;;;;;;;1.91;100.00;97573.75;5113446;28;20048;-54
2022/04/01 09:12:07;;;;;;;7.22;4.63;;;;;;;2.03;100.00;97546.66;5113293;28;20433;-53
2022/04/01 09:14:33;;;;;;;7.85;5.03;;;;;;;1.83;100.00;97489.81;5113555;28;20043;-51
2022/04/01 09:17:00;;;;;;;8.90;4.70;;;;;;;1.69;100.00;97500.25;5113041;28;20115;-51
2022/04/01 09:19:30;;;;;;;7.32;5.15;;;;;;;1.81;100.00;97558.84;5116145;28;20502;-50
2022/04/01 09:21:57;;;;;;;12.25;5.45;;;;;;;2.05;100.00;97547.88;5134025;27;20054;-55
2022/04/01 09:24:25;;;;;;;8.30;5.18;;;;;;;2.38;100.00;97532.44;5133939;28;20070;-52
2022/04/01 09:26:55;;;;;;;9.27;5.03;;;;;;;2.49;100.00;97444.19;5131434;28;20047;-52
2022/04/01 09:29:21;;;;;;;10.13;5.25;;;;;;;1.93;100.00;97402.00;5132741;27;20051;-61
2022/04/01 09:31:52;;;;;;;7.80;5.50;;;;;;;1.88;100.00;97462.50;5152079;27;20057;-60
2022/04/01 09:34:18;;;;;;;7.15;5.15;;;;;;;2.00;100.00;97493.28;5148473;27;20047;-58
2022/04/01 09:36:45;;;;;;;8.57;5.38;;;;;;;1.90;100.00;97486.50;5122397;28;20083;-55
2022/04/01 09:39:13;;;;;;;5.30;4.38;;;;;;;2.02;100.00;97518.06;5122373;27;20055;-55
2022/04/01 09:41:42;;;;;;;7.25;4.65;;;;;;;2.19;100.00;97539.31;5116322;28;20051;-58
2022/04/01 09:44:11;;;;;;;7.75;4.80;;;;;;;2.08;100.00;97492.34;5127215;27;20434;-55
2022/04/01 09:46:42;;;;;;;8.05;5.50;;;;;;;2.42;100.00;97480.00;5133237;27;20047;-57
2022/04/01 09:49:09;;;;;;;10.30;4.82;;;;;;;2.31;100.00;97447.31;5123695;28;20058;-57
2022/04/01 09:51:41;;;;;;;7.28;4.65;;;;;;;2.52;100.00;97438.88;5123573;28;20051;-62
2022/04/01 09:54:07;;;;;;;8.43;5.57;;;;;;;2.44;100.00;97407.41;5116596;27;20050;-62
2022/04/01 09:56:42;;;;;;;7.40;4.85;;;;;;;2.51;100.00;97383.22;5126979;28;20047;-62
2022/04/01 09:59:11;;;;;;;8.63;5.60;;;;;;;2.38;100.00;97381.00;5112469;28;20048;-62
2022/04/01 10:01:38;;;;;;;7.70;5.35;;;;;;;2.53;100.00;97421.53;5112983;28;20043;-63
2022/04/01 10:04:05;;;;;;;5.85;4.50;;;;;;;2.64;100.00;97397.38;5112709;28;20051;-62
2022/04/01 10:06:33;;;;;;;8.20;5.28;;;;;;;2.53;100.00;97364.72;5112774;28;20059;-63
2022/04/01 10:09:03;;;;;;;13.52;4.90;;;;;;;2.42;100.00;97369.09;5112420;28;20059;-62
2022/04/01 10:11:30;;;;;;;6.20;4.55;;;;;;;2.51;100.00;97402.16;5112220;28;20050;-62
2022/04/01 10:13:58;;;;;;;8.15;5.43;;;;;;;2.46;100.00;97390.81;5112932;28;20047;-58
2022/04/01 10:16:26;;;;;;;10.77;6.30;;;;;;;2.20;100.00;97375.19;5127208;28;20555;-58
2022/04/01 10:18:54;;;;;;;6.05;4.80;;;;;;;2.18;100.00;97443.13;5132577;27;20402;-57
2022/04/01 10:21:20;;;;;;;10.57;5.10;;;;;;;2.43;100.00;97478.06;5115594;28;20154;-61
2022/04/01 10:23:56;;;;;;;6.78;3.60;;;;;;;2.77;100.00;97449.44;5120984;28;20096;-61
2022/04/01 10:26:23;;;;;;;6.80;4.72;;;;;;;2.76;100.00;97410.75;5122132;28;20055;-54
2022/04/01 10:28:52;;;;;;;6.75;4.80;;;;;;;2.69;100.00;97402.50;5132566;28;20494;-59
2022/04/01 10:31:20;;;;;;;8.02;4.80;;;;;;;2.41;100.00;97383.78;5117900;28;20073;-58
2022/04/01 10:33:47;;;;;;;10.18;4.93;;;;;;;2.59;100.00;97455.25;5124161;28;20051;-61
2022/04/01 10:36:16;;;;;;;6.20;4.63;;;;;;;2.62;100.00;97426.72;5128930;28;20386;-58
2022/04/01 10:38:42;;;;;;;7.45;4.72;;;;;;;2.55;100.00;97450.91;5129302;27;20059;-56
2022/04/01 10:41:11;;;;;;;6.60;4.88;;;;;;;2.39;100.00;97413.06;5124214;27;20426;-53
2022/04/01 10:43:40;;;;;;;6.25;4.82;;;;;;;2.55;100.00;97453.63;5128247;28;20044;-57
2022/04/01 10:46:08;;;;;;;6.95;5.03;;;;;;;2.49;100.00;97463.91;5124882;27;20425;-56
2022/04/01 10:51:37;;;;;;;7.72;5.13;;;;;;;2.69;100.00;97461.25;5123104;27;20050;-61
2022/04/01 10:54:24;;;;;;;7.40;4.82;;;;;;;3.12;100.00;97433.13;5112156;28;20574;-55
2022/04/01 10:56:56;;;;;;;9.48;5.00;;;;;;;3.08;100.00;97361.09;5111031;28;20513;-61
2022/04/01 10:59:25;;;;;;;7.85;5.22;;;;;;;3.08;100.00;97337.53;5111434;28;20525;-61
2022/04/01 11:02:06;;;;;;;7.90;4.85;;;;;;;2.82;100.00;97335.50;5111746;28;20055;-62
2022/04/01 11:04:35;;;;;;;7.32;4.80;;;;;;;2.65;100.00;97334.00;5111634;28;20051;-57
2022/04/01 11:07:04;;;;;;;8.23;5.20;;;;;;;2.83;100.00;97388.47;5111944;28;20098;-56
2022/04/01 11:09:36;;;;;;;7.65;4.93;;;;;;;2.77;100.00;97360.94;5111071;28;20054;-55
2022/04/01 11:12:27;;;;;;;8.98;5.13;;;;;;;2.61;100.00;97368.34;5111103;28;20048;-55
2022/04/01 11:15:24;;;;;;;9.35;5.45;;;;;;;3.06;100.00;97416.38;5114938;28;20087;-55
2022/04/01 11:18:04;;;;;;;13.40;5.32;;;;;;;3.21;100.00;97352.44;5131620;27;20058;-59
2022/04/01 11:20:35;;;;;;;7.15;5.25;;;;;;;3.04;100.00;97339.38;5129851;27;20112;-60
2022/04/01 11:23:04;;;;;;;6.82;4.90;;;;;;;2.97;100.00;97353.56;5113213;28;20798;-55
2022/04/01 11:25:55;;;;;;;12.35;5.50;;;;;;;2.77;100.00;97323.03;5132154;28;20058;-57
2022/04/01 11:28:24;;;;;;;8.00;4.95;;;;;;;2.70;100.00;97360.78;5131593;28;20058;-58
2022/04/01 11:31:10;;;;;;;12.05;4.95;;;;;;;2.92;100.00;97385.56;5130821;27;20497;-53
2022/04/01 11:33:36;;;;;;;10.40;5.72;;;;;;;2.76;100.00;97380.22;5122102;28;20083;-59
2022/04/01 11:36:04;;;;;;;7.05;4.97;;;;;;;2.60;100.00;97388.41;5130663;27;20080;-57
2022/04/01 11:38:31;;;;;;;9.48;5.63;;;;;;;2.64;100.00;97426.38;5131948;27;20403;-55
2022/04/01 11:41:00;;;;;;;7.65;5.03;;;;;;;2.76;100.00;97418.88;5143850;27;20446;-61
2022/04/01 11:43:28;;;;;;;10.90;5.22;;;;;;;2.91;100.00;97409.13;5152613;27;20046;-55